Aviation Digital Data Service (ADDS)

Output produced by METARs form (0131 UTC 23 April 2021)
found at http://aviationweather.gov/metar/data/
 
METAR text: K5SM 230115Z AUTO 33005KT 10SM M02/M05 A2994 RMK AO2
Conditions at: K5SM (SUNLIGHT , CO, US) observed 0115 UTC 23 April 2021
Temperature: -2.0°C (28°F)
Dewpoint: -5.0°C (23°F) [RH = 80%]
Pressure (altimeter): 29.94 inches Hg (1014.0 mb)
Winds: from the NNW (330 degrees) at 6 MPH (5 knots; 2.6 m/s)
Visibility: 10 or more miles (16+ km)
Ceiling: unknown
Clouds: missing
Weather: automated observation with no human augmentation;
there may or may not be significant weather present at this time

METAR text: K5SM 230055Z AUTO 28005KT 10SM M02/M05 A2993 RMK AO2 LTG DSNT SW
Conditions at: K5SM (SUNLIGHT , CO, US) observed 0055 UTC 23 April 2021
Temperature: -2.0°C (28°F)
Dewpoint: -5.0°C (23°F) [RH = 80%]
Pressure (altimeter): 29.93 inches Hg (1013.6 mb)
Winds: from the W (280 degrees) at 6 MPH (5 knots; 2.6 m/s)
Visibility: 10 or more miles (16+ km)
Ceiling: unknown
Clouds: missing
Weather: automated observation with no human augmentation;
there may or may not be significant weather present at this time

METAR text: K5SM 230035Z AUTO 23007KT 190V260 10SM M01/M04 A2993 RMK AO2
Conditions at: K5SM (SUNLIGHT , CO, US) observed 0035 UTC 23 April 2021
Temperature: -1.0°C (30°F)
Dewpoint: -4.0°C (25°F) [RH = 80%]
Pressure (altimeter): 29.93 inches Hg (1013.6 mb)
Winds: from the SW (230 degrees) at 8 MPH (7 knots; 3.6 m/s)
Visibility: 10 or more miles (16+ km)
Ceiling: unknown
Clouds: missing
Weather: automated observation with no human augmentation;
there may or may not be significant weather present at this time